sensor_id;sensor_type;location;lat;lon;timestamp;temperature;humidity
15906;DHT22;8051;50.820;4.884;2024-03-23T00:53:35;6.30;99.90
15906;DHT22;8051;50.820;4.884;2024-03-23T00:56:01;6.30;99.90
15906;DHT22;8051;50.820;4.884;2024-03-23T00:58:29;6.30;99.90
15906;DHT22;8051;50.820;4.884;2024-03-23T01:00:55;6.30;99.90
15906;DHT22;8051;50.820;4.884;2024-03-23T01:03:22;6.30;99.90
15906;DHT22;8051;50.820;4.884;2024-03-23T01:05:49;6.40;99.90
15906;DHT22;8051;50.820;4.884;2024-03-23T01:08:16;6.50;99.90
15906;DHT22;8051;50.820;4.884;2024-03-23T01:10:54;6.50;99.90
15906;DHT22;8051;50.820;4.884;2024-03-23T01:13:22;6.50;99.90
15906;DHT22;8051;50.820;4.884;2024-03-23T01:15:49;6.50;99.90
15906;DHT22;8051;50.820;4.884;2024-03-23T01:18:17;6.50;99.90
15906;DHT22;8051;50.820;4.884;2024-03-23T01:20:44;6.50;99.90
15906;DHT22;8051;50.820;4.884;2024-03-23T01:23:11;6.50;99.90
15906;DHT22;8051;50.820;4.884;2024-03-23T01:25:38;6.50;99.90
15906;DHT22;8051;50.820;4.884;2024-03-23T01:28:07;6.50;99.90
15906;DHT22;8051;50.820;4.884;2024-03-23T01:30:34;6.60;99.90
15906;DHT22;8051;50.820;4.884;2024-03-23T01:33:02;6.60;99.90
15906;DHT22;8051;50.820;4.884;2024-03-23T01:35:28;6.50;99.90
15906;DHT22;8051;50.820;4.884;2024-03-23T01:37:57;6.40;99.90
15906;DHT22;8051;50.820;4.884;2024-03-23T01:40:24;6.30;99.90
15906;DHT22;8051;50.820;4.884;2024-03-23T01:42:56;6.30;99.90
15906;DHT22;8051;50.820;4.884;2024-03-23T01:45:24;6.30;99.90
15906;DHT22;8051;50.820;4.884;2024-03-23T01:47:52;6.40;99.90
15906;DHT22;8051;50.820;4.884;2024-03-23T01:50:19;6.30;99.90
15906;DHT22;8051;50.820;4.884;2024-03-23T01:52:47;6.30;99.90
15906;DHT22;8051;50.820;4.884;2024-03-23T01:55:13;6.30;99.90
15906;DHT22;8051;50.820;4.884;2024-03-23T01:57:41;6.30;99.90
15906;DHT22;8051;50.820;4.884;2024-03-23T02:00:08;6.30;99.90
15906;DHT22;8051;50.820;4.884;2024-03-23T02:02:42;6.30;99.90
15906;DHT22;8051;50.820;4.884;2024-03-23T02:05:10;6.40;99.90
15906;DHT22;8051;50.820;4.884;2024-03-23T02:07:38;6.40;99.90
15906;DHT22;8051;50.820;4.884;2024-03-23T02:10:06;6.40;99.90
15906;DHT22;8051;50.820;4.884;2024-03-23T02:12:35;6.40;99.90
15906;DHT22;8051;50.820;4.884;2024-03-23T02:15:02;6.40;99.90
15906;DHT22;8051;50.820;4.884;2024-03-23T02:17:32;6.50;99.90
15906;DHT22;8051;50.820;4.884;2024-03-23T02:20:00;6.40;99.90
15906;DHT22;8051;50.820;4.884;2024-03-23T02:22:38;6.40;99.90
15906;DHT22;8051;50.820;4.884;2024-03-23T02:25:06;6.40;99.90
15906;DHT22;8051;50.820;4.884;2024-03-23T02:27:34;6.40;99.90
15906;DHT22;8051;50.820;4.884;2024-03-23T02:30:01;6.40;99.90
15906;DHT22;8051;50.820;4.884;2024-03-23T02:32:29;6.30;99.90
15906;DHT22;8051;50.820;4.884;2024-03-23T02:34:55;6.20;99.90
15906;DHT22;8051;50.820;4.884;2024-03-23T02:37:23;6.20;99.90
15906;DHT22;8051;50.820;4.884;2024-03-23T02:39:49;6.10;99.90
15906;DHT22;8051;50.820;4.884;2024-03-23T02:42:18;6.10;99.90
15906;DHT22;8051;50.820;4.884;2024-03-23T02:44:45;6.10;99.90
15906;DHT22;8051;50.820;4.884;2024-03-23T02:47:13;6.20;99.90
15906;DHT22;8051;50.820;4.884;2024-03-23T02:49:39;6.20;99.90
15906;DHT22;8051;50.820;4.884;2024-03-23T02:52:07;6.20;99.90
15906;DHT22;8051;50.820;4.884;2024-03-23T02:54:33;6.20;99.90
15906;DHT22;8051;50.820;4.884;2024-03-23T02:57:00;6.20;99.90
15906;DHT22;8051;50.820;4.884;2024-03-23T02:59:28;6.30;99.90
15906;DHT22;8051;50.820;4.884;2024-03-23T03:01:55;6.30;99.90
15906;DHT22;8051;50.820;4.884;2024-03-23T03:04:22;6.30;99.90
15906;DHT22;8051;50.820;4.884;2024-03-23T03:06:49;6.30;99.90
15906;DHT22;8051;50.820;4.884;2024-03-23T03:09:16;6.30;99.90
15906;DHT22;8051;50.820;4.884;2024-03-23T03:11:43;6.30;99.90
15906;DHT22;8051;50.820;4.884;2024-03-23T03:14:09;6.30;99.90
15906;DHT22;8051;50.820;4.884;2024-03-23T03:16:38;6.30;99.90
15906;DHT22;8051;50.820;4.884;2024-03-23T03:19:04;6.30;99.90
15906;DHT22;8051;50.820;4.884;2024-03-23T03:21:32;6.30;99.90
15906;DHT22;8051;50.820;4.884;2024-03-23T03:23:58;6.30;99.90
15906;DHT22;8051;50.820;4.884;2024-03-23T03:26:26;6.30;99.90
15906;DHT22;8051;50.820;4.884;2024-03-23T03:28:52;6.30;99.90
15906;DHT22;8051;50.820;4.884;2024-03-23T03:31:20;6.30;99.90
15906;DHT22;8051;50.820;4.884;2024-03-23T03:33:50;6.30;99.90
15906;DHT22;8051;50.820;4.884;2024-03-23T03:36:17;6.30;99.90
15906;DHT22;8051;50.820;4.884;2024-03-23T03:38:44;6.30;99.90
15906;DHT22;8051;50.820;4.884;2024-03-23T03:41:11;6.30;99.90
15906;DHT22;8051;50.820;4.884;2024-03-23T03:43:37;6.30;99.90
15906;DHT22;8051;50.820;4.884;2024-03-23T03:46:05;6.30;99.90
15906;DHT22;8051;50.820;4.884;2024-03-23T03:48:34;6.30;99.90
15906;DHT22;8051;50.820;4.884;2024-03-23T03:51:03;6.30;99.90
15906;DHT22;8051;50.820;4.884;2024-03-23T03:53:30;6.30;99.90
15906;DHT22;8051;50.820;4.884;2024-03-23T03:56:00;6.30;99.90
15906;DHT22;8051;50.820;4.884;2024-03-23T03:58:27;6.30;99.90
15906;DHT22;8051;50.820;4.884;2024-03-23T04:00:54;6.30;99.90
15906;DHT22;8051;50.820;4.884;2024-03-23T04:03:21;6.20;99.90
15906;DHT22;8051;50.820;4.884;2024-03-23T04:05:51;6.20;99.90
15906;DHT22;8051;50.820;4.884;2024-03-23T04:08:19;6.20;99.90
15906;DHT22;8051;50.820;4.884;2024-03-23T04:10:46;6.20;99.90
15906;DHT22;8051;50.820;4.884;2024-03-23T04:13:13;6.00;99.90
15906;DHT22;8051;50.820;4.884;2024-03-23T04:15:41;6.00;99.90
15906;DHT22;8051;50.820;4.884;2024-03-23T04:18:08;5.90;99.90
15906;DHT22;8051;50.820;4.884;2024-03-23T04:20:35;5.90;99.90
15906;DHT22;8051;50.820;4.884;2024-03-23T04:23:02;5.80;99.90
15906;DHT22;8051;50.820;4.884;2024-03-23T04:25:30;5.80;99.90
15906;DHT22;8051;50.820;4.884;2024-03-23T04:27:57;5.70;99.90
15906;DHT22;8051;50.820;4.884;2024-03-23T04:30:25;5.70;99.90
15906;DHT22;8051;50.820;4.884;2024-03-23T04:32:54;5.70;99.90
15906;DHT22;8051;50.820;4.884;2024-03-23T04:35:22;5.80;99.90
15906;DHT22;8051;50.820;4.884;2024-03-23T04:37:51;5.80;99.90
15906;DHT22;8051;50.820;4.884;2024-03-23T04:40:20;5.80;99.90
15906;DHT22;8051;50.820;4.884;2024-03-23T04:42:49;5.80;99.90
15906;DHT22;8051;50.820;4.884;2024-03-23T04:45:16;5.80;99.90
15906;DHT22;8051;50.820;4.884;2024-03-23T04:47:43;5.80;99.90
15906;DHT22;8051;50.820;4.884;2024-03-23T04:50:11;5.80;99.90
15906;DHT22;8051;50.820;4.884;2024-03-23T04:52:38;5.80;99.90
15906;DHT22;8051;50.820;4.884;2024-03-23T04:55:06;5.80;99.90
15906;DHT22;8051;50.820;4.884;2024-03-23T04:57:34;5.90;99.90
15906;DHT22;8051;50.820;4.884;2024-03-23T05:00:02;5.90;99.90
15906;DHT22;8051;50.820;4.884;2024-03-23T05:02:40;5.90;99.90
15906;DHT22;8051;50.820;4.884;2024-03-23T05:05:08;5.90;99.90
15906;DHT22;8051;50.820;4.884;2024-03-23T05:07:35;5.90;99.90
15906;DHT22;8051;50.820;4.884;2024-03-23T05:10:02;5.90;99.90
15906;DHT22;8051;50.820;4.884;2024-03-23T05:12:29;6.00;99.90
15906;DHT22;8051;50.820;4.884;2024-03-23T05:14:57;6.00;99.90
15906;DHT22;8051;50.820;4.884;2024-03-23T05:17:25;6.00;99.90
15906;DHT22;8051;50.820;4.884;2024-03-23T05:19:52;6.10;99.90
15906;DHT22;8051;50.820;4.884;2024-03-23T05:22:18;6.10;99.90
15906;DHT22;8051;50.820;4.884;2024-03-23T05:24:46;6.10;99.90
15906;DHT22;8051;50.820;4.884;2024-03-23T05:27:13;6.10;99.90
15906;DHT22;8051;50.820;4.884;2024-03-23T05:29:40;6.00;99.90
15906;DHT22;8051;50.820;4.884;2024-03-23T05:32:07;5.90;99.90
15906;DHT22;8051;50.820;4.884;2024-03-23T05:34:36;5.90;99.90
15906;DHT22;8051;50.820;4.884;2024-03-23T05:37:02;5.80;99.90
15906;DHT22;8051;50.820;4.884;2024-03-23T05:39:30;5.80;99.90
15906;DHT22;8051;50.820;4.884;2024-03-23T05:41:56;5.70;99.90
15906;DHT22;8051;50.820;4.884;2024-03-23T05:44:23;5.70;99.90
15906;DHT22;8051;50.820;4.884;2024-03-23T05:46:50;5.60;99.90
15906;DHT22;8051;50.820;4.884;2024-03-23T05:49:17;5.60;99.90
15906;DHT22;8051;50.820;4.884;2024-03-23T05:51:46;5.50;99.90
15906;DHT22;8051;50.820;4.884;2024-03-23T05:54:12;5.60;99.90
15906;DHT22;8051;50.820;4.884;2024-03-23T05:56:40;5.50;99.90
15906;DHT22;8051;50.820;4.884;2024-03-23T05:59:06;5.50;99.90
15906;DHT22;8051;50.820;4.884;2024-03-23T06:01:35;5.60;99.90
15906;DHT22;8051;50.820;4.884;2024-03-23T06:04:01;5.60;99.90
15906;DHT22;8051;50.820;4.884;2024-03-23T06:06:29;5.60;99.90
15906;DHT22;8051;50.820;4.884;2024-03-23T06:08:57;5.60;99.90
15906;DHT22;8051;50.820;4.884;2024-03-23T06:11:25;5.60;99.90
15906;DHT22;8051;50.820;4.884;2024-03-23T06:13:52;5.60;99.90
15906;DHT22;8051;50.820;4.884;2024-03-23T06:16:20;5.60;99.90
15906;DHT22;8051;50.820;4.884;2024-03-23T06:18:49;5.70;99.90
15906;DHT22;8051;50.820;4.884;2024-03-23T06:21:16;5.80;99.90
15906;DHT22;8051;50.820;4.884;2024-03-23T06:23:43;6.00;99.90
15906;DHT22;8051;50.820;4.884;2024-03-23T06:26:15;6.20;99.90
15906;DHT22;8051;50.820;4.884;2024-03-23T06:28:41;6.30;99.90
15906;DHT22;8051;50.820;4.884;2024-03-23T06:31:09;6.40;99.90
15906;DHT22;8051;50.820;4.884;2024-03-23T06:33:36;6.50;99.90
15906;DHT22;8051;50.820;4.884;2024-03-23T06:36:04;6.50;99.90
15906;DHT22;8051;50.820;4.884;2024-03-23T06:38:30;6.60;99.90
15906;DHT22;8051;50.820;4.884;2024-03-23T06:40:58;6.60;99.90
15906;DHT22;8051;50.820;4.884;2024-03-23T06:43:25;6.60;99.90
15906;DHT22;8051;50.820;4.884;2024-03-23T06:45:53;6.60;99.90
15906;DHT22;8051;50.820;4.884;2024-03-23T06:48:20;6.70;99.90
15906;DHT22;8051;50.820;4.884;2024-03-23T06:50:49;6.60;99.90
15906;DHT22;8051;50.820;4.884;2024-03-23T06:53:15;6.60;99.90
15906;DHT22;8051;50.820;4.884;2024-03-23T06:55:50;6.70;99.90
15906;DHT22;8051;50.820;4.884;2024-03-23T06:58:17;6.80;99.90
15906;DHT22;8051;50.820;4.884;2024-03-23T07:00:49;6.80;99.90
15906;DHT22;8051;50.820;4.884;2024-03-23T07:03:16;6.90;99.90
15906;DHT22;8051;50.820;4.884;2024-03-23T07:05:43;6.90;99.90
15906;DHT22;8051;50.820;4.884;2024-03-23T07:08:12;7.00;99.90
15906;DHT22;8051;50.820;4.884;2024-03-23T07:10:44;7.00;99.90
15906;DHT22;8051;50.820;4.884;2024-03-23T07:13:10;7.00;99.90
15906;DHT22;8051;50.820;4.884;2024-03-23T07:15:38;7.10;99.90
15906;DHT22;8051;50.820;4.884;2024-03-23T07:18:06;7.10;99.90
15906;DHT22;8051;50.820;4.884;2024-03-23T07:20:33;7.00;99.90
15906;DHT22;8051;50.820;4.884;2024-03-23T07:23:00;6.90;99.90
15906;DHT22;8051;50.820;4.884;2024-03-23T07:25:27;6.90;99.90
15906;DHT22;8051;50.820;4.884;2024-03-23T07:27:55;6.90;99.90
15906;DHT22;8051;50.820;4.884;2024-03-23T07:30:22;6.80;99.90
15906;DHT22;8051;50.820;4.884;2024-03-23T07:32:49;7.10;99.90
15906;DHT22;8051;50.820;4.884;2024-03-23T07:35:17;7.40;99.90
15906;DHT22;8051;50.820;4.884;2024-03-23T07:37:44;7.70;99.90
15906;DHT22;8051;50.820;4.884;2024-03-23T07:40:13;7.80;99.90
15906;DHT22;8051;50.820;4.884;2024-03-23T07:42:39;7.90;99.90
15906;DHT22;8051;50.820;4.884;2024-03-23T07:45:07;7.80;99.90
15906;DHT22;8051;50.820;4.884;2024-03-23T07:47:35;7.40;99.90
15906;DHT22;8051;50.820;4.884;2024-03-23T07:50:03;6.80;99.90
15906;DHT22;8051;50.820;4.884;2024-03-23T07:52:31;6.40;99.90
15906;DHT22;8051;50.820;4.884;2024-03-23T07:54:58;6.20;99.90
15906;DHT22;8051;50.820;4.884;2024-03-23T07:57:24;6.00;99.90
15906;DHT22;8051;50.820;4.884;2024-03-23T07:59:51;5.90;99.90
15906;DHT22;8051;50.820;4.884;2024-03-23T08:02:18;6.00;99.90
15906;DHT22;8051;50.820;4.884;2024-03-23T08:04:45;6.00;99.90
15906;DHT22;8051;50.820;4.884;2024-03-23T08:07:11;6.00;99.90
15906;DHT22;8051;50.820;4.884;2024-03-23T08:09:40;6.00;99.90
15906;DHT22;8051;50.820;4.884;2024-03-23T08:12:07;5.90;99.90
15906;DHT22;8051;50.820;4.884;2024-03-23T08:14:35;6.00;99.90
15906;DHT22;8051;50.820;4.884;2024-03-23T08:17:01;6.00;99.90
15906;DHT22;8051;50.820;4.884;2024-03-23T08:19:28;6.20;99.90
15906;DHT22;8051;50.820;4.884;2024-03-23T08:21:55;6.30;99.90
15906;DHT22;8051;50.820;4.884;2024-03-23T08:24:22;6.40;99.90
15906;DHT22;8051;50.820;4.884;2024-03-23T08:26:50;6.50;99.90
15906;DHT22;8051;50.820;4.884;2024-03-23T08:29:17;6.60;99.90
15906;DHT22;8051;50.820;4.884;2024-03-23T08:31:44;6.70;99.90
15906;DHT22;8051;50.820;4.884;2024-03-23T08:34:11;6.80;99.90
15906;DHT22;8051;50.820;4.884;2024-03-23T08:36:37;6.90;99.90
15906;DHT22;8051;50.820;4.884;2024-03-23T08:39:05;7.00;99.90
15906;DHT22;8051;50.820;4.884;2024-03-23T08:41:31;7.10;99.90
15906;DHT22;8051;50.820;4.884;2024-03-23T08:44:00;7.30;99.90
15906;DHT22;8051;50.820;4.884;2024-03-23T08:46:27;7.50;99.90
15906;DHT22;8051;50.820;4.884;2024-03-23T08:48:54;7.80;99.90
15906;DHT22;8051;50.820;4.884;2024-03-23T08:51:21;8.00;99.90
15906;DHT22;8051;50.820;4.884;2024-03-23T08:53:48;8.00;99.90
15906;DHT22;8051;50.820;4.884;2024-03-23T08:56:14;8.10;99.90
15906;DHT22;8051;50.820;4.884;2024-03-23T08:58:42;8.00;99.90
15906;DHT22;8051;50.820;4.884;2024-03-23T09:01:11;8.10;99.90
15906;DHT22;8051;50.820;4.884;2024-03-23T09:03:39;8.30;99.90
15906;DHT22;8051;50.820;4.884;2024-03-23T09:06:07;8.20;99.90
15906;DHT22;8051;50.820;4.884;2024-03-23T09:08:35;8.00;99.90
15906;DHT22;8051;50.820;4.884;2024-03-23T09:11:04;8.00;99.90
15906;DHT22;8051;50.820;4.884;2024-03-23T09:13:33;7.90;99.90
15906;DHT22;8051;50.820;4.884;2024-03-23T09:15:59;8.00;99.90
15906;DHT22;8051;50.820;4.884;2024-03-23T09:18:31;8.00;99.90
15906;DHT22;8051;50.820;4.884;2024-03-23T09:20:57;8.30;99.90
15906;DHT22;8051;50.820;4.884;2024-03-23T09:23:25;8.40;99.90
15906;DHT22;8051;50.820;4.884;2024-03-23T09:25:51;8.40;99.90
15906;DHT22;8051;50.820;4.884;2024-03-23T09:28:18;8.50;99.90
15906;DHT22;8051;50.820;4.884;2024-03-23T09:30:45;8.80;99.90
15906;DHT22;8051;50.820;4.884;2024-03-23T09:33:12;8.90;99.90
15906;DHT22;8051;50.820;4.884;2024-03-23T09:35:41;9.00;99.90
15906;DHT22;8051;50.820;4.884;2024-03-23T09:38:10;8.90;99.90
15906;DHT22;8051;50.820;4.884;2024-03-23T09:40:41;8.80;99.90
15906;DHT22;8051;50.820;4.884;2024-03-23T09:43:09;8.70;99.90
15906;DHT22;8051;50.820;4.884;2024-03-23T09:45:38;8.70;99.90
15906;DHT22;8051;50.820;4.884;2024-03-23T09:48:07;9.00;99.90
15906;DHT22;8051;50.820;4.884;2024-03-23T09:50:34;9.40;99.90
15906;DHT22;8051;50.820;4.884;2024-03-23T09:53:05;9.50;99.90
15906;DHT22;8051;50.820;4.884;2024-03-23T09:55:32;9.50;99.90
15906;DHT22;8051;50.820;4.884;2024-03-23T09:58:01;9.60;99.90
15906;DHT22;8051;50.820;4.884;2024-03-23T10:00:27;9.80;99.90
15906;DHT22;8051;50.820;4.884;2024-03-23T10:02:55;9.80;99.90
15906;DHT22;8051;50.820;4.884;2024-03-23T10:05:24;9.60;99.90
15906;DHT22;8051;50.820;4.884;2024-03-23T10:07:53;9.30;99.90
15906;DHT22;8051;50.820;4.884;2024-03-23T10:10:21;9.20;99.90
15906;DHT22;8051;50.820;4.884;2024-03-23T10:12:49;9.10;99.90
15906;DHT22;8051;50.820;4.884;2024-03-23T10:15:19;9.00;99.90
15906;DHT22;8051;50.820;4.884;2024-03-23T10:17:47;9.10;99.90
15906;DHT22;8051;50.820;4.884;2024-03-23T10:20:13;9.20;99.90
15906;DHT22;8051;50.820;4.884;2024-03-23T10:22:46;9.20;99.90
15906;DHT22;8051;50.820;4.884;2024-03-23T10:25:13;9.20;99.90
15906;DHT22;8051;50.820;4.884;2024-03-23T10:27:42;9.10;99.90
15906;DHT22;8051;50.820;4.884;2024-03-23T10:30:10;8.80;99.90
15906;DHT22;8051;50.820;4.884;2024-03-23T10:32:38;8.70;99.90
15906;DHT22;8051;50.820;4.884;2024-03-23T10:35:18;8.70;99.90
15906;DHT22;8051;50.820;4.884;2024-03-23T10:37:48;8.60;99.90
15906;DHT22;8051;50.820;4.884;2024-03-23T10:40:15;8.40;99.90
15906;DHT22;8051;50.820;4.884;2024-03-23T10:42:45;8.80;99.90
15906;DHT22;8051;50.820;4.884;2024-03-23T10:45:11;9.20;99.90
15906;DHT22;8051;50.820;4.884;2024-03-23T10:47:39;9.40;99.90
15906;DHT22;8051;50.820;4.884;2024-03-23T10:50:05;9.50;99.90
15906;DHT22;8051;50.820;4.884;2024-03-23T10:52:33;9.40;99.90
15906;DHT22;8051;50.820;4.884;2024-03-23T10:55:01;9.20;99.90
15906;DHT22;8051;50.820;4.884;2024-03-23T10:57:34;9.10;99.90
15906;DHT22;8051;50.820;4.884;2024-03-23T11:00:05;8.90;99.90
15906;DHT22;8051;50.820;4.884;2024-03-23T11:02:33;8.70;99.90
15906;DHT22;8051;50.820;4.884;2024-03-23T11:04:59;8.20;99.90
15906;DHT22;8051;50.820;4.884;2024-03-23T11:07:30;7.90;99.90
15906;DHT22;8051;50.820;4.884;2024-03-23T11:09:57;7.90;99.90
15906;DHT22;8051;50.820;4.884;2024-03-23T11:12:29;8.00;99.90
15906;DHT22;8051;50.820;4.884;2024-03-23T11:15:03;8.20;99.90
15906;DHT22;8051;50.820;4.884;2024-03-23T11:17:31;8.40;99.90
15906;DHT22;8051;50.820;4.884;2024-03-23T11:19:58;8.50;99.90
15906;DHT22;8051;50.820;4.884;2024-03-23T11:22:40;8.60;99.90
15906;DHT22;8051;50.820;4.884;2024-03-23T11:25:13;8.90;99.90
15906;DHT22;8051;50.820;4.884;2024-03-23T11:27:41;9.00;99.90
15906;DHT22;8051;50.820;4.884;2024-03-23T11:30:16;9.30;99.90
15906;DHT22;8051;50.820;4.884;2024-03-23T11:32:45;9.60;99.90
15906;DHT22;8051;50.820;4.884;2024-03-23T11:35:27;9.80;99.90
15906;DHT22;8051;50.820;4.884;2024-03-23T11:38:04;9.60;99.90
15906;DHT22;8051;50.820;4.884;2024-03-23T11:40:30;9.40;99.90
15906;DHT22;8051;50.820;4.884;2024-03-23T11:42:59;9.50;99.90
15906;DHT22;8051;50.820;4.884;2024-03-23T11:45:27;9.40;99.90
15906;DHT22;8051;50.820;4.884;2024-03-23T11:48:06;9.40;99.90
15906;DHT22;8051;50.820;4.884;2024-03-23T11:50:33;9.20;99.90
15906;DHT22;8051;50.820;4.884;2024-03-23T11:53:14;9.50;99.90
15906;DHT22;8051;50.820;4.884;2024-03-23T11:55:47;9.60;99.90
15906;DHT22;8051;50.820;4.884;2024-03-23T11:58:16;9.60;99.90
15906;DHT22;8051;50.820;4.884;2024-03-23T12:00:49;9.60;99.90
15906;DHT22;8051;50.820;4.884;2024-03-23T12:03:18;9.80;99.90
15906;DHT22;8051;50.820;4.884;2024-03-23T12:05:49;9.80;99.90
15906;DHT22;8051;50.820;4.884;2024-03-23T12:08:20;10.00;99.90
15906;DHT22;8051;50.820;4.884;2024-03-23T12:10:49;10.30;99.90
15906;DHT22;8051;50.820;4.884;2024-03-23T12:13:20;10.50;99.90
15906;DHT22;8051;50.820;4.884;2024-03-23T12:15:50;10.70;99.90
15906;DHT22;8051;50.820;4.884;2024-03-23T12:18:18;10.70;99.90
15906;DHT22;8051;50.820;4.884;2024-03-23T12:20:50;10.30;99.90
15906;DHT22;8051;50.820;4.884;2024-03-23T12:23:17;10.00;99.90
15906;DHT22;8051;50.820;4.884;2024-03-23T12:25:43;9.90;99.90
15906;DHT22;8051;50.820;4.884;2024-03-23T12:28:11;10.20;99.90
15906;DHT22;8051;50.820;4.884;2024-03-23T12:30:39;10.30;99.90
15906;DHT22;8051;50.820;4.884;2024-03-23T12:33:08;10.10;99.90
15906;DHT22;8051;50.820;4.884;2024-03-23T12:35:35;10.10;99.90
15906;DHT22;8051;50.820;4.884;2024-03-23T12:38:03;10.00;99.90
15906;DHT22;8051;50.820;4.884;2024-03-23T12:40:29;9.80;99.90
15906;DHT22;8051;50.820;4.884;2024-03-23T12:42:56;9.60;99.90
15906;DHT22;8051;50.820;4.884;2024-03-23T12:45:23;9.50;99.90
15906;DHT22;8051;50.820;4.884;2024-03-23T12:47:50;9.50;99.90
15906;DHT22;8051;50.820;4.884;2024-03-23T12:50:21;9.50;99.90
15906;DHT22;8051;50.820;4.884;2024-03-23T12:52:49;9.30;99.90
15906;DHT22;8051;50.820;4.884;2024-03-23T12:55:15;9.00;99.90
15906;DHT22;8051;50.820;4.884;2024-03-23T12:57:43;9.20;99.90
15906;DHT22;8051;50.820;4.884;2024-03-23T13:00:10;9.70;99.90
15906;DHT22;8051;50.820;4.884;2024-03-23T13:02:38;9.90;99.90
15906;DHT22;8051;50.820;4.884;2024-03-23T13:05:05;9.50;99.90
15906;DHT22;8051;50.820;4.884;2024-03-23T13:07:35;8.30;99.90
15906;DHT22;8051;50.820;4.884;2024-03-23T13:10:05;7.50;99.90
15906;DHT22;8051;50.820;4.884;2024-03-23T13:12:33;7.30;99.90
15906;DHT22;8051;50.820;4.884;2024-03-23T13:14:59;7.40;99.90
15906;DHT22;8051;50.820;4.884;2024-03-23T13:17:27;7.60;99.90
15906;DHT22;8051;50.820;4.884;2024-03-23T13:19:53;7.90;99.90
15906;DHT22;8051;50.820;4.884;2024-03-23T13:22:21;8.40;99.90
15906;DHT22;8051;50.820;4.884;2024-03-23T13:24:49;8.50;99.90
15906;DHT22;8051;50.820;4.884;2024-03-23T13:27:17;8.70;99.90
15906;DHT22;8051;50.820;4.884;2024-03-23T13:29:44;9.00;99.90
15906;DHT22;8051;50.820;4.884;2024-03-23T13:32:12;9.20;99.90
15906;DHT22;8051;50.820;4.884;2024-03-23T13:34:39;9.50;99.90
15906;DHT22;8051;50.820;4.884;2024-03-23T13:37:07;9.70;99.90
15906;DHT22;8051;50.820;4.884;2024-03-23T13:39:33;9.90;99.90
15906;DHT22;8051;50.820;4.884;2024-03-23T13:42:02;10.10;99.90
15906;DHT22;8051;50.820;4.884;2024-03-23T13:44:30;10.40;99.90
15906;DHT22;8051;50.820;4.884;2024-03-23T13:46:56;10.70;99.90
15906;DHT22;8051;50.820;4.884;2024-03-23T13:49:26;11.10;99.90
15906;DHT22;8051;50.820;4.884;2024-03-23T13:51:53;11.20;99.90
15906;DHT22;8051;50.820;4.884;2024-03-23T13:54:20;11.40;99.90
15906;DHT22;8051;50.820;4.884;2024-03-23T13:56:48;11.40;99.90
15906;DHT22;8051;50.820;4.884;2024-03-23T13:59:18;11.30;99.90
15906;DHT22;8051;50.820;4.884;2024-03-23T14:01:44;10.90;99.90
15906;DHT22;8051;50.820;4.884;2024-03-23T14:04:12;11.00;99.90
15906;DHT22;8051;50.820;4.884;2024-03-23T14:06:39;11.20;99.90
15906;DHT22;8051;50.820;4.884;2024-03-23T14:09:07;11.40;99.90
15906;DHT22;8051;50.820;4.884;2024-03-23T14:11:35;11.60;99.90
15906;DHT22;8051;50.820;4.884;2024-03-23T14:14:02;11.50;99.90
15906;DHT22;8051;50.820;4.884;2024-03-23T14:16:31;11.30;99.90
15906;DHT22;8051;50.820;4.884;2024-03-23T14:18:59;10.90;99.90
15906;DHT22;8051;50.820;4.884;2024-03-23T14:21:25;10.80;99.90
15906;DHT22;8051;50.820;4.884;2024-03-23T14:23:53;11.00;99.90
15906;DHT22;8051;50.820;4.884;2024-03-23T14:26:19;10.90;99.90
15906;DHT22;8051;50.820;4.884;2024-03-23T14:28:47;10.90;99.90
15906;DHT22;8051;50.820;4.884;2024-03-23T14:31:13;10.60;99.90
15906;DHT22;8051;50.820;4.884;2024-03-23T14:33:42;10.80;99.90
15906;DHT22;8051;50.820;4.884;2024-03-23T14:36:12;10.40;99.90
15906;DHT22;8051;50.820;4.884;2024-03-23T14:38:39;9.90;99.90
15906;DHT22;8051;50.820;4.884;2024-03-23T14:41:06;9.90;99.90
15906;DHT22;8051;50.820;4.884;2024-03-23T14:43:34;10.00;99.90
15906;DHT22;8051;50.820;4.884;2024-03-23T14:46:07;9.90;99.90
15906;DHT22;8051;50.820;4.884;2024-03-23T14:48:35;9.90;99.90
15906;DHT22;8051;50.820;4.884;2024-03-23T14:51:03;9.70;99.90
15906;DHT22;8051;50.820;4.884;2024-03-23T14:53:32;9.40;99.90
15906;DHT22;8051;50.820;4.884;2024-03-23T14:55:59;9.30;99.90
15906;DHT22;8051;50.820;4.884;2024-03-23T14:58:27;9.20;99.90
15906;DHT22;8051;50.820;4.884;2024-03-23T15:00:59;8.90;99.90
15906;DHT22;8051;50.820;4.884;2024-03-23T15:03:26;8.70;99.90
15906;DHT22;8051;50.820;4.884;2024-03-23T15:05:54;8.50;99.90
15906;DHT22;8051;50.820;4.884;2024-03-23T15:08:23;8.50;99.90
15906;DHT22;8051;50.820;4.884;2024-03-23T15:10:50;8.70;99.90
15906;DHT22;8051;50.820;4.884;2024-03-23T15:13:17;9.00;99.90
15906;DHT22;8051;50.820;4.884;2024-03-23T15:15:44;9.40;99.90
15906;DHT22;8051;50.820;4.884;2024-03-23T15:18:14;9.80;99.90
15906;DHT22;8051;50.820;4.884;2024-03-23T15:20:41;9.80;99.90
15906;DHT22;8051;50.820;4.884;2024-03-23T15:23:08;9.80;99.90
15906;DHT22;8051;50.820;4.884;2024-03-23T15:25:36;10.00;99.90
15906;DHT22;8051;50.820;4.884;2024-03-23T15:28:04;10.20;99.90
15906;DHT22;8051;50.820;4.884;2024-03-23T15:30:31;10.50;99.90
15906;DHT22;8051;50.820;4.884;2024-03-23T15:32:58;10.60;99.90
15906;DHT22;8051;50.820;4.884;2024-03-23T15:35:24;11.00;99.90
15906;DHT22;8051;50.820;4.884;2024-03-23T15:37:52;11.40;99.90
15906;DHT22;8051;50.820;4.884;2024-03-23T15:40:18;11.50;99.90
15906;DHT22;8051;50.820;4.884;2024-03-23T15:42:47;11.50;99.90
15906;DHT22;8051;50.820;4.884;2024-03-23T15:45:14;11.40;99.90
15906;DHT22;8051;50.820;4.884;2024-03-23T15:47:42;11.20;99.90
15906;DHT22;8051;50.820;4.884;2024-03-23T15:50:09;11.30;99.90
15906;DHT22;8051;50.820;4.884;2024-03-23T15:52:36;11.20;99.90
15906;DHT22;8051;50.820;4.884;2024-03-23T15:55:03;11.30;99.90
15906;DHT22;8051;50.820;4.884;2024-03-23T15:57:33;11.30;99.90
15906;DHT22;8051;50.820;4.884;2024-03-23T16:00:02;11.20;99.90
15906;DHT22;8051;50.820;4.884;2024-03-23T16:02:30;11.20;99.90
15906;DHT22;8051;50.820;4.884;2024-03-23T16:04:56;11.10;99.90
15906;DHT22;8051;50.820;4.884;2024-03-23T16:07:24;11.00;99.90
15906;DHT22;8051;50.820;4.884;2024-03-23T16:09:50;10.90;99.90
15906;DHT22;8051;50.820;4.884;2024-03-23T16:12:17;10.60;99.90
15906;DHT22;8051;50.820;4.884;2024-03-23T16:14:44;10.30;99.90
15906;DHT22;8051;50.820;4.884;2024-03-23T16:17:13;10.10;99.90
15906;DHT22;8051;50.820;4.884;2024-03-23T16:19:39;10.10;99.90
15906;DHT22;8051;50.820;4.884;2024-03-23T16:22:07;9.90;99.90
15906;DHT22;8051;50.820;4.884;2024-03-23T16:24:33;9.70;99.90
15906;DHT22;8051;50.820;4.884;2024-03-23T16:27:00;9.00;99.90
15906;DHT22;8051;50.820;4.884;2024-03-23T16:29:27;8.80;99.90
15906;DHT22;8051;50.820;4.884;2024-03-23T16:31:54;8.60;99.90
15906;DHT22;8051;50.820;4.884;2024-03-23T16:34:22;7.70;99.90
15906;DHT22;8051;50.820;4.884;2024-03-23T16:36:50;7.20;99.90
15906;DHT22;8051;50.820;4.884;2024-03-23T16:39:16;7.10;99.90
15906;DHT22;8051;50.820;4.884;2024-03-23T16:41:43;6.80;99.90
15906;DHT22;8051;50.820;4.884;2024-03-23T16:44:09;6.70;99.90
15906;DHT22;8051;50.820;4.884;2024-03-23T16:46:37;6.90;99.90
15906;DHT22;8051;50.820;4.884;2024-03-23T16:49:04;7.10;99.90
15906;DHT22;8051;50.820;4.884;2024-03-23T16:51:33;7.30;99.90
15906;DHT22;8051;50.820;4.884;2024-03-23T16:53:59;7.60;99.90
15906;DHT22;8051;50.820;4.884;2024-03-23T16:56:26;7.80;99.90